Wind From: 11-12-2017 12:03 Until: 12-12-2017 06:00 warning for: Wind Level: Orange info button

Power and phone distribution networks may be disrupted for relatively long periods., Roofs and chimneys can be damaged. , Tree branches may break. , Vehicles can be deported. , Traffic may be disrupted, particularly on secondary roads in forest areas. Limit your trips. , Limit your speed in highway driving, especially if you drive a vehicle or hitch sensitive to wind. , Do not go for walks in forests or along the coast., In town, be vigilant against possible falling objects., Do not work on roofs and do not touch any electrical line fallen on the ground., Store or secure sensitive objects to wind or likely to be damaged., Always install power generators outside buildings. 


Meteo18 Weather Cam more information Meteo18 Weather Cam


Thunder radar more information blitzortung!


Rain radar more information rain snow radar


Visit our other weather sites:

Template documentation
and downloads

And another site



Weather Underground History page Text

Daily Summary for November 13, 2017 Units:  English    Metric   Both
« Previous Day
Next Day »
Daily Weekly Monthly Yearly Custom
  High: Low: Average:
Temperature: 46 °F 39.6 °F 42.1 °F
Dew Point: 39.7 °F 35.8 °F 37.8 °F
Humidity: 91 % 78 % 85 %
Wind Speed: 19 mph 0 mph 7.3 mph
Wind Gust: 24 mph - -
Wind:- - West
Pressure: 30.3 in 30 in -
Precipitation: 0 in    
Historical Graphs
 
 
Tabular Data for November 13, 2017
Time Temperature Dew Point Pressure Wind Wind Speed Wind Gust Humidity Rainfall Rate (Hourly)
00:02 40.8 °F 36.1 °F 30 in WNW 12 mph 16 mph 83 % 0 in
00:07 40.8 °F 36.1 °F 30 in NW 9 mph 17 mph 83 % 0 in
00:12 40.8 °F 36.1 °F 30 in NNE 5 mph 17 mph 83 % 0 in
00:17 40.8 °F 36.1 °F 30 in NNW 5 mph 17 mph 83 % 0 in
00:22 40.8 °F 36.1 °F 30 in WNW 8 mph 17 mph 83 % 0 in
00:32 40.6 °F 36 °F 30 in NW 5 mph 18 mph 83 % 0 in
00:42 40.6 °F 36 °F 30 in NW 4 mph 16 mph 83 % 0 in
00:47 40.5 °F 35.8 °F 30 in West 8 mph 16 mph 83 % 0 in
00:52 40.5 °F 36 °F 30 in NNW 8 mph 16 mph 84 % 0 in
00:57 40.5 °F 35.8 °F 30 in NW 7 mph 17 mph 83 % 0 in
01:02 40.5 °F 35.8 °F 30 in NW 8 mph 17 mph 83 % 0 in
01:07 40.6 °F 36 °F 30 in WNW 6 mph 18 mph 83 % 0 in
01:12 40.5 °F 35.8 °F 30 in NNE 9 mph 18 mph 83 % 0 in
01:17 40.5 °F 35.8 °F 30 in NW 8 mph 18 mph 83 % 0 in
01:22 40.5 °F 35.8 °F 30 in NW 9 mph 18 mph 83 % 0 in
01:32 40.5 °F 36 °F 30 in NW 12 mph 18 mph 84 % 0 in
01:37 40.5 °F 36 °F 30 in WNW 17 mph 18 mph 84 % 0 in
01:42 40.5 °F 36 °F 30.1 in NNW 5 mph 17 mph 84 % 0 in
01:47 40.5 °F 36 °F 30.1 in NNW 7 mph 17 mph 84 % 0 in
01:52 40.3 °F 35.8 °F 30.1 in NW 9 mph 18 mph 84 % 0 in
01:57 40.3 °F 36.1 °F 30.1 in NW 9 mph 18 mph 85 % 0 in
02:02 40.1 °F 36 °F 30.1 in NW 6 mph 18 mph 85 % 0 in
02:07 39.9 °F 35.8 °F 30.1 in WNW 2 mph 18 mph 85 % 0 in
02:12 39.9 °F 36.1 °F 30.1 in WNW 6 mph 18 mph 86 % 0 in
02:17 39.7 °F 36 °F 30.1 in WNW 5 mph 18 mph 86 % 0 in
02:22 39.7 °F 36 °F 30.1 in NW 12 mph 16 mph 86 % 0 in
02:27 39.7 °F 36 °F 30.1 in NW 9 mph 15 mph 86 % 0 in
02:32 39.7 °F 36 °F 30.1 in WNW 15 mph 17 mph 86 % 0 in
02:37 39.7 °F 36 °F 30.1 in NNW 8 mph 17 mph 86 % 0 in
02:42 39.7 °F 36 °F 30.1 in WNW 3 mph 17 mph 86 % 0 in
02:47 39.6 °F 36 °F 30.1 in WNW 11 mph 17 mph 87 % 0 in
02:52 39.7 °F 36.1 °F 30.1 in NW 9 mph 17 mph 87 % 0 in
02:57 39.7 °F 36.1 °F 30.1 in NW 12 mph 17 mph 87 % 0 in
03:02 39.7 °F 36.1 °F 30.1 in NNW 12 mph 17 mph 87 % 0 in
03:12 39.9 °F 36.3 °F 30.1 in NNW 8 mph 19 mph 87 % 0 in
03:17 39.9 °F 36.3 °F 30.1 in NW 12 mph 19 mph 87 % 0 in
03:22 40.1 °F 36.5 °F 30.1 in NW 4 mph 17 mph 87 % 0 in
03:27 40.3 °F 36.7 °F 30.1 in North 8 mph 17 mph 87 % 0 in
03:32 40.3 °F 36.5 °F 30.1 in WNW 13 mph 19 mph 86 % 0 in
03:37 40.5 °F 36.7 °F 30.1 in NW 6 mph 19 mph 86 % 0 in
03:42 39.6 °F 35.8 °F 30.1 in NW 6 mph 17 mph 86 % 0 in
08:42 41.2 °F 37.9 °F 30.1 in NNW 13 mph -998.7 mph 88 % 0 in
08:47 41.4 °F 38.1 °F 30.1 in North 11 mph 20 mph 88 % 0 in
08:52 41.4 °F 38.1 °F 30.1 in NNW 13 mph 20 mph 88 % 0 in
08:57 41.4 °F 37.8 °F 30.1 in North 10 mph 20 mph 87 % 0 in
09:02 41.5 °F 37.9 °F 30.2 in NNW 12 mph 20 mph 87 % 0 in
09:12 41.5 °F 37.9 °F 30.2 in NNE 12 mph 23 mph 87 % 0 in
09:17 41.5 °F 37.9 °F 30.2 in NW 11 mph 17 mph 87 % 0 in
09:27 41.5 °F 37.9 °F 30.2 in NNW 7 mph 17 mph 87 % 0 in
09:32 41.5 °F 37.9 °F 30.2 in NNW 13 mph 17 mph 87 % 0 in
09:37 41.7 °F 38.1 °F 30.2 in NNE 11 mph 18 mph 87 % 0 in
09:42 41.7 °F 37.8 °F 30.2 in NNW 7 mph 18 mph 86 % 0 in
09:47 41.7 °F 38.1 °F 30.2 in NNW 12 mph 18 mph 87 % 0 in
09:52 41.7 °F 37.8 °F 30.2 in NNE 10 mph 18 mph 86 % 0 in
09:57 41.9 °F 37.9 °F 30.2 in NNW 13 mph 22 mph 86 % 0 in
10:02 41.9 °F 37.9 °F 30.2 in North 9 mph 22 mph 86 % 0 in
10:07 42.1 °F 38.1 °F 30.2 in North 15 mph 22 mph 86 % 0 in
10:12 42.3 °F 38.3 °F 30.2 in NW 9 mph 22 mph 86 % 0 in
10:17 42.3 °F 38.1 °F 30.2 in NNW 12 mph 22 mph 85 % 0 in
10:22 42.3 °F 38.1 °F 30.2 in NNE 11 mph 22 mph 85 % 0 in
10:32 42.3 °F 38.1 °F 30.2 in NW 19 mph 22 mph 85 % 0 in
10:42 42.4 °F 38.5 °F 30.2 in North 10 mph 22 mph 86 % 0 in
10:47 42.6 °F 38.5 °F 30.2 in NW 13 mph 21 mph 85 % 0 in
10:52 42.6 °F 38.1 °F 30.2 in NW 15 mph 21 mph 84 % 0 in
10:57 42.6 °F 38.5 °F 30.2 in NNW 8 mph 21 mph 85 % 0 in
11:02 42.8 °F 38.7 °F 30.2 in NNW 11 mph 21 mph 85 % 0 in
11:12 43 °F 38.8 °F 30.2 in NNE 8 mph 20 mph 85 % 0 in
11:17 43.2 °F 39 °F 30.2 in NW 9 mph 17 mph 85 % 0 in
11:27 43.5 °F 38.7 °F 30.2 in NNE 12 mph 18 mph 83 % 0 in
11:32 43.5 °F 38.7 °F 30.2 in NNW 12 mph 18 mph 83 % 0 in
11:37 43.9 °F 39 °F 30.2 in North 11 mph 22 mph 83 % 0 in
11:42 43.9 °F 39 °F 30.2 in North 16 mph 22 mph 83 % 0 in
11:47 44.1 °F 39.2 °F 30.2 in North 13 mph 22 mph 83 % 0 in
11:52 44.2 °F 39.4 °F 30.2 in NNW 18 mph 22 mph 83 % 0 in
11:57 44.4 °F 39.2 °F 30.2 in ENE 10 mph 20 mph 82 % 0 in
12:02 44.4 °F 39.2 °F 30.2 in NNW 10 mph 20 mph 82 % 0 in
12:12 44.4 °F 39.2 °F 30.2 in North 17 mph 20 mph 82 % 0 in
12:17 44.6 °F 39.7 °F 30.2 in NNW 8 mph 21 mph 83 % 0 in
12:27 44.8 °F 39.4 °F 30.2 in NNE 15 mph 22 mph 81 % 0 in
12:32 45 °F 39.7 °F 30.2 in NW 8 mph 22 mph 82 % 0 in
12:42 45 °F 39.2 °F 30.2 in North 10 mph 24 mph 80 % 0 in
12:52 45 °F 39.6 °F 30.2 in NNW 10 mph 22 mph 81 % 0 in
12:57 44.8 °F 39 °F 30.2 in NNW 13 mph 22 mph 80 % 0 in
13:07 44.8 °F 39 °F 30.2 in NNW 9 mph 19 mph 80 % 0 in
13:12 44.8 °F 39.4 °F 30.2 in NNW 8 mph 19 mph 81 % 0 in
13:17 44.8 °F 39.4 °F 30.2 in NNE 7 mph 19 mph 81 % 0 in
13:22 44.8 °F 39 °F 30.2 in NNW 12 mph 19 mph 80 % 0 in
13:32 45.1 °F 39.4 °F 30.2 in NNW 8 mph 18 mph 80 % 0 in
13:37 45.3 °F 39.6 °F 30.2 in NNE 9 mph 18 mph 80 % 0 in
13:42 45.5 °F 39.4 °F 30.2 in NW 5 mph 18 mph 79 % 0 in
13:47 45.3 °F 39.2 °F 30.2 in North 11 mph 17 mph 79 % 0 in
13:52 45.3 °F 39.2 °F 30.2 in North 10 mph 17 mph 79 % 0 in
13:57 45.5 °F 39.4 °F 30.2 in NW 6 mph 17 mph 79 % 0 in
14:02 45.9 °F 39.4 °F 30.2 in NNW 8 mph 16 mph 78 % 0 in
14:12 45.9 °F 39.4 °F 30.2 in North 7 mph 18 mph 78 % 0 in
14:17 46 °F 39.6 °F 30.2 in North 12 mph 18 mph 78 % 0 in
14:22 46 °F 39.6 °F 30.2 in North 10 mph 18 mph 78 % 0 in
14:27 45.9 °F 39.4 °F 30.2 in NE 7 mph 17 mph 78 % 0 in
14:32 45.9 °F 39.4 °F 30.2 in NNW 15 mph 17 mph 78 % 0 in
14:37 46 °F 39.6 °F 30.2 in NNW 10 mph 17 mph 78 % 0 in
14:42 45.9 °F 39.4 °F 30.2 in North 10 mph 16 mph 78 % 0 in
14:52 45.5 °F 39.4 °F 30.2 in NNW 7 mph 16 mph 79 % 0 in
14:57 45.3 °F 39.6 °F 30.2 in NW 11 mph 17 mph 80 % 0 in
15:02 45 °F 39.6 °F 30.2 in WNW 11 mph 17 mph 81 % 0 in
15:07 45 °F 39.2 °F 30.2 in NNW 4 mph 17 mph 80 % 0 in
15:12 45 °F 39.2 °F 30.2 in NW 7 mph 17 mph 80 % 0 in
15:17 44.4 °F 39 °F 30.2 in NNW 6 mph 17 mph 81 % 0 in
15:22 44.2 °F 39 °F 30.2 in WNW 6 mph 15 mph 82 % 0 in
15:32 43.5 °F 38.7 °F 30.2 in NW 4 mph 11 mph 83 % 0 in
15:37 43.3 °F 38.5 °F 30.2 in NW 2 mph 12 mph 83 % 0 in
15:42 43.3 °F 38.5 °F 30.2 in North 4 mph 12 mph 83 % 0 in
15:52 43.9 °F 39 °F 30.2 in ENE 4 mph 9 mph 83 % 0 in
15:57 44.1 °F 39.2 °F 30.2 in NNW 4 mph 9 mph 83 % 0 in
16:02 44.4 °F 39.6 °F 30.2 in NNW 3 mph 9 mph 83 % 0 in
16:12 44.4 °F 39.2 °F 30.2 in NNE 6 mph 11 mph 82 % 0 in
16:17 44.6 °F 39.4 °F 30.2 in North 6 mph 10 mph 82 % 0 in
16:22 44.6 °F 39.4 °F 30.2 in NNE 10 mph 12 mph 82 % 0 in
16:27 44.6 °F 39.4 °F 30.2 in North 5 mph 12 mph 82 % 0 in
16:32 44.4 °F 39.2 °F 30.2 in NW 7 mph 12 mph 82 % 0 in
16:42 44.2 °F 39 °F 30.2 in NNW 6 mph 12 mph 82 % 0 in
16:47 44.2 °F 38.5 °F 30.2 in NNW 7 mph 12 mph 80 % 0 in
16:52 44.2 °F 38.5 °F 30.2 in North 2 mph 14 mph 80 % 0 in
16:57 44.1 °F 38.3 °F 30.2 in NW 3 mph 14 mph 80 % 0 in
17:02 43.9 °F 38.5 °F 30.2 in NNW 10 mph 10 mph 81 % 0 in
17:12 43.3 °F 38.3 °F 30.2 in WNW 4 mph 14 mph 82 % 0 in
17:17 43.2 °F 38.3 °F 30.2 in NW 3 mph 14 mph 83 % 0 in
17:22 43 °F 38.1 °F 30.2 in WNW 1 mph 14 mph 83 % 0 in
17:27 43 °F 38.1 °F 30.2 in West 8 mph 10 mph 83 % 0 in
17:32 42.6 °F 37.8 °F 30.2 in NNW 3 mph 10 mph 83 % 0 in
17:42 42.3 °F 37.8 °F 30.2 in NNW 2 mph 9 mph 84 % 0 in
17:47 42.1 °F 37.9 °F 30.2 in NNW 5 mph 8 mph 85 % 0 in
17:52 42.1 °F 37.9 °F 30.2 in NNW 3 mph 10 mph 85 % 0 in
17:57 41.9 °F 37.8 °F 30.3 in WNW 1 mph 10 mph 85 % 0 in
18:02 41.7 °F 37.6 °F 30.3 in NNW 3 mph 10 mph 85 % 0 in
18:12 41.7 °F 37.6 °F 30.3 in NNW 1 mph 10 mph 85 % 0 in
18:17 42.1 °F 37.6 °F 30.3 in NNW 5 mph 9 mph 84 % 0 in
18:22 42.3 °F 37.8 °F 30.3 in NNW 6 mph 9 mph 84 % 0 in
18:32 42.3 °F 37.4 °F 30.3 in NNW 7 mph 10 mph 83 % 0 in
18:42 41.9 °F 37.4 °F 30.3 in NNW 2 mph 9 mph 84 % 0 in
18:47 41.7 °F 37.2 °F 30.3 in NNE 3 mph 8 mph 84 % 0 in
18:52 41.5 °F 37.4 °F 30.3 in NNW 2 mph 8 mph 85 % 0 in
18:57 41.4 °F 37.2 °F 30.3 in NNW 1 mph 7 mph 85 % 0 in
19:02 41.2 °F 37.4 °F 30.3 in NNE 2 mph 6 mph 86 % 0 in
19:12 40.8 °F 37.2 °F 30.3 in Calm   5 mph 87 % 0 in
19:17 41 °F 37.4 °F 30.3 in North 2 mph 5 mph 87 % 0 in
19:22 41.2 °F 37.6 °F 30.3 in NNW 3 mph 6 mph 87 % 0 in
19:27 40.8 °F 37.2 °F 30.3 in WNW 3 mph 6 mph 87 % 0 in
19:32 40.8 °F 37.6 °F 30.3 in NW 3 mph 6 mph 88 % 0 in
19:37 41.2 °F 37.9 °F 30.3 in North 3 mph 8 mph 88 % 0 in
19:42 41.2 °F 37.6 °F 30.3 in NNW 4 mph 8 mph 87 % 0 in
19:47 41.2 °F 37.6 °F 30.3 in NNE 4 mph 8 mph 87 % 0 in
19:52 41.2 °F 37.6 °F 30.3 in NNW 4 mph 8 mph 87 % 0 in
19:57 41.2 °F 37.6 °F 30.3 in NNW 5 mph 11 mph 87 % 0 in
20:02 41.4 °F 37.6 °F 30.3 in North 9 mph 11 mph 86 % 0 in
20:12 41.5 °F 37.6 °F 30.3 in North 5 mph 12 mph 86 % 0 in
20:17 41.7 °F 37.8 °F 30.3 in North 8 mph 12 mph 86 % 0 in
20:22 41.7 °F 37.8 °F 30.3 in North 4 mph 12 mph 86 % 0 in
20:27 41.7 °F 37.8 °F 30.3 in NNE 4 mph 12 mph 86 % 0 in
20:32 41.9 °F 37.9 °F 30.3 in North 6 mph 11 mph 86 % 0 in
20:42 42.1 °F 38.1 °F 30.3 in Calm   9 mph 86 % 0 in
20:47 42.1 °F 38.1 °F 30.3 in North 6 mph 8 mph 86 % 0 in
20:52 41.9 °F 37.9 °F 30.3 in NW 4 mph 8 mph 86 % 0 in
20:57 41.5 °F 37.9 °F 30.3 in NNW 2 mph 8 mph 87 % 0 in
21:02 41.4 °F 37.8 °F 30.3 in North 5 mph 8 mph 87 % 0 in
21:07 41.2 °F 37.9 °F 30.3 in NNW 5 mph 7 mph 88 % 0 in
21:12 40.8 °F 37.6 °F 30.3 in NNW 5 mph 8 mph 88 % 0 in
21:22 40.6 °F 37.6 °F 30.3 in North 3 mph 8 mph 89 % 0 in
21:27 40.5 °F 37.4 °F 30.3 in NW 3 mph 9 mph 89 % 0 in
21:37 40.3 °F 37.2 °F 30.3 in WNW 3 mph 9 mph 89 % 0 in
21:42 40.1 °F 37.4 °F 30.3 in NNW 3 mph 8 mph 90 % 0 in
21:52 40.3 °F 37.9 °F 30.3 in North 9 mph 9 mph 91 % 0 in
21:57 40.5 °F 37.8 °F 30.3 in North 2 mph 11 mph 90 % 0 in
22:02 40.5 °F 37.8 °F 30.3 in NNW 5 mph 11 mph 90 % 0 in
22:12 40.5 °F 37.8 °F 30.3 in WNW 6 mph 8 mph 90 % 0 in
22:22 40.6 °F 37.9 °F 30.3 in NW 5 mph 11 mph 90 % 0 in
22:32 40.8 °F 37.8 °F 30.3 in NW 6 mph 13 mph 89 % 0 in
22:37 40.8 °F 37.8 °F 30.3 in WNW 3 mph 13 mph 89 % 0 in
22:42 40.8 °F 37.8 °F 30.3 in North 5 mph 13 mph 89 % 0 in
22:47 40.8 °F 37.8 °F 30.3 in NNW 5 mph 13 mph 89 % 0 in
22:52 40.6 °F 37.6 °F 30.3 in North 9 mph 14 mph 89 % 0 in
22:57 40.8 °F 37.8 °F 30.3 in NNW 4 mph 14 mph 89 % 0 in
23:02 40.8 °F 37.8 °F 30.3 in NNW 4 mph 13 mph 89 % 0 in
23:07 40.8 °F 37.6 °F 30.3 in NW 3 mph 12 mph 88 % 0 in
23:12 40.8 °F 37.6 °F 30.3 in NNW 5 mph 11 mph 88 % 0 in
23:17 40.6 °F 37.4 °F 30.3 in North 3 mph 11 mph 88 % 0 in
23:27 39.9 °F 36.9 °F 30.3 in NNE 5 mph 8 mph 89 % 0 in
23:32 39.7 °F 36.7 °F 30.3 in NNE 4 mph 7 mph 89 % 0 in
23:42 39.7 °F 36.7 °F 30.3 in WNW 4 mph 10 mph 89 % 0 in
23:47 39.7 °F 37 °F 30.3 in North 9 mph 11 mph 90 % 0 in
23:57 39.7 °F 37 °F 30.3 in North 10 mph 13 mph 90 % 0 in
Meteo18
Compliments of Weather Underground - 4 mb

Script developed by  Jim McMurry - jmcmurry@mwt.net Adapted for the template by  Wim van der Kuil - Leuven-Template.eu

You find our weather info also at:

European Weather Network

Weather Underground

Equipment we use:

Weather-station
Davis Vue

Weather-program
Meteohub

Weather-server
Raspberry PI 2 B+

Provider
1 and 1

Davis Vue

Meteohub

Raspberry PI 2 B+

1 and 1